sensor_id;sensor_type;location;lat;lon;timestamp;temperature;humidity
50013;DHT22;35901;48.694;9.476;2023-06-22T00:00:52;20.00;99.90
50013;DHT22;35901;48.694;9.476;2023-06-22T00:03:19;20.10;99.90
50013;DHT22;35901;48.694;9.476;2023-06-22T00:05:46;20.10;99.90
50013;DHT22;35901;48.694;9.476;2023-06-22T00:08:12;20.10;99.90
50013;DHT22;35901;48.694;9.476;2023-06-22T00:10:38;20.10;99.90
50013;DHT22;35901;48.694;9.476;2023-06-22T00:13:05;20.10;99.90
50013;DHT22;35901;48.694;9.476;2023-06-22T00:15:31;20.00;99.90
50013;DHT22;35901;48.694;9.476;2023-06-22T00:17:56;19.80;99.90
50013;DHT22;35901;48.694;9.476;2023-06-22T00:20:23;19.40;99.90
50013;DHT22;35901;48.694;9.476;2023-06-22T00:22:57;19.10;99.90
50013;DHT22;35901;48.694;9.476;2023-06-22T00:25:24;18.80;99.90
50013;DHT22;35901;48.694;9.476;2023-06-22T00:27:50;18.70;99.90
50013;DHT22;35901;48.694;9.476;2023-06-22T00:30:17;18.60;99.90
50013;DHT22;35901;48.694;9.476;2023-06-22T00:32:43;18.50;99.90
50013;DHT22;35901;48.694;9.476;2023-06-22T00:35:09;18.40;99.90
50013;DHT22;35901;48.694;9.476;2023-06-22T00:37:36;18.40;99.90
50013;DHT22;35901;48.694;9.476;2023-06-22T00:40:02;18.30;99.90
50013;DHT22;35901;48.694;9.476;2023-06-22T00:42:30;18.20;99.90
50013;DHT22;35901;48.694;9.476;2023-06-22T00:44:56;18.20;99.90
50013;DHT22;35901;48.694;9.476;2023-06-22T00:47:23;18.20;99.90
50013;DHT22;35901;48.694;9.476;2023-06-22T00:49:49;18.10;99.90
50013;DHT22;35901;48.694;9.476;2023-06-22T00:52:20;18.20;99.90
50013;DHT22;35901;48.694;9.476;2023-06-22T00:54:48;18.20;99.90
50013;DHT22;35901;48.694;9.476;2023-06-22T00:57:17;18.20;99.90
50013;DHT22;35901;48.694;9.476;2023-06-22T00:59:44;18.20;99.90
50013;DHT22;35901;48.694;9.476;2023-06-22T01:02:11;18.10;99.90
50013;DHT22;35901;48.694;9.476;2023-06-22T01:04:38;18.00;99.90
50013;DHT22;35901;48.694;9.476;2023-06-22T01:10:03;17.90;99.90
50013;DHT22;35901;48.694;9.476;2023-06-22T01:12:37;17.90;99.90
50013;DHT22;35901;48.694;9.476;2023-06-22T01:17:36;17.80;99.90
50013;DHT22;35901;48.694;9.476;2023-06-22T01:20:07;17.80;99.90
50013;DHT22;35901;48.694;9.476;2023-06-22T01:23:06;17.80;99.90
50013;DHT22;35901;48.694;9.476;2023-06-22T01:26:08;17.90;99.90
50013;DHT22;35901;48.694;9.476;2023-06-22T01:28:47;17.90;99.90
50013;DHT22;35901;48.694;9.476;2023-06-22T01:31:16;18.00;99.90
50013;DHT22;35901;48.694;9.476;2023-06-22T01:33:47;18.10;99.90
50013;DHT22;35901;48.694;9.476;2023-06-22T01:36:14;18.10;99.90
50013;DHT22;35901;48.694;9.476;2023-06-22T01:38:40;18.10;99.90
50013;DHT22;35901;48.694;9.476;2023-06-22T01:41:07;18.00;99.90
50013;DHT22;35901;48.694;9.476;2023-06-22T01:43:33;17.80;99.90
50013;DHT22;35901;48.694;9.476;2023-06-22T01:46:01;17.80;99.90
50013;DHT22;35901;48.694;9.476;2023-06-22T01:48:28;17.70;99.90
50013;DHT22;35901;48.694;9.476;2023-06-22T01:50:55;17.70;99.90
50013;DHT22;35901;48.694;9.476;2023-06-22T01:53:24;17.60;99.90
50013;DHT22;35901;48.694;9.476;2023-06-22T01:55:51;17.50;99.90
50013;DHT22;35901;48.694;9.476;2023-06-22T01:58:18;17.40;99.90
50013;DHT22;35901;48.694;9.476;2023-06-22T02:01:00;17.40;99.90
50013;DHT22;35901;48.694;9.476;2023-06-22T02:03:35;17.40;99.90
50013;DHT22;35901;48.694;9.476;2023-06-22T02:06:16;17.40;99.90
50013;DHT22;35901;48.694;9.476;2023-06-22T02:08:51;17.40;99.90
50013;DHT22;35901;48.694;9.476;2023-06-22T02:11:18;17.40;99.90
50013;DHT22;35901;48.694;9.476;2023-06-22T02:13:46;17.40;99.90
50013;DHT22;35901;48.694;9.476;2023-06-22T02:16:13;17.40;99.90
50013;DHT22;35901;48.694;9.476;2023-06-22T02:18:49;17.40;99.90
50013;DHT22;35901;48.694;9.476;2023-06-22T02:21:16;17.40;99.90
50013;DHT22;35901;48.694;9.476;2023-06-22T02:23:42;17.30;99.90
50013;DHT22;35901;48.694;9.476;2023-06-22T02:26:08;17.30;99.90
50013;DHT22;35901;48.694;9.476;2023-06-22T02:28:34;17.20;99.90
50013;DHT22;35901;48.694;9.476;2023-06-22T02:30:59;17.20;99.90
50013;DHT22;35901;48.694;9.476;2023-06-22T02:33:25;17.10;99.90
50013;DHT22;35901;48.694;9.476;2023-06-22T02:35:51;16.90;99.90
50013;DHT22;35901;48.694;9.476;2023-06-22T02:38:16;16.80;99.90
50013;DHT22;35901;48.694;9.476;2023-06-22T02:40:43;16.70;99.90
50013;DHT22;35901;48.694;9.476;2023-06-22T02:43:09;16.70;99.90
50013;DHT22;35901;48.694;9.476;2023-06-22T02:45:36;16.60;99.90
50013;DHT22;35901;48.694;9.476;2023-06-22T02:48:01;16.50;99.90
50013;DHT22;35901;48.694;9.476;2023-06-22T02:50:27;16.40;99.90
50013;DHT22;35901;48.694;9.476;2023-06-22T02:52:54;16.40;99.90
50013;DHT22;35901;48.694;9.476;2023-06-22T02:55:20;16.40;99.90
50013;DHT22;35901;48.694;9.476;2023-06-22T02:57:53;16.40;99.90
50013;DHT22;35901;48.694;9.476;2023-06-22T03:00:19;16.30;99.90
50013;DHT22;35901;48.694;9.476;2023-06-22T03:02:48;16.30;99.90
50013;DHT22;35901;48.694;9.476;2023-06-22T03:05:15;16.30;99.90
50013;DHT22;35901;48.694;9.476;2023-06-22T03:07:44;16.30;99.90
50013;DHT22;35901;48.694;9.476;2023-06-22T03:10:10;16.40;99.90
50013;DHT22;35901;48.694;9.476;2023-06-22T03:12:37;16.40;99.90
50013;DHT22;35901;48.694;9.476;2023-06-22T03:15:05;16.40;99.90
50013;DHT22;35901;48.694;9.476;2023-06-22T03:17:31;16.50;99.90
50013;DHT22;35901;48.694;9.476;2023-06-22T03:19:57;16.60;99.90
50013;DHT22;35901;48.694;9.476;2023-06-22T03:22:23;16.60;99.90
50013;DHT22;35901;48.694;9.476;2023-06-22T03:24:48;16.70;99.90
50013;DHT22;35901;48.694;9.476;2023-06-22T03:27:14;16.70;99.90
50013;DHT22;35901;48.694;9.476;2023-06-22T03:29:40;16.80;99.90
50013;DHT22;35901;48.694;9.476;2023-06-22T03:32:06;16.80;99.90
50013;DHT22;35901;48.694;9.476;2023-06-22T03:34:32;16.80;99.90
50013;DHT22;35901;48.694;9.476;2023-06-22T03:37:04;16.80;99.90
50013;DHT22;35901;48.694;9.476;2023-06-22T03:39:30;16.80;99.90
50013;DHT22;35901;48.694;9.476;2023-06-22T03:41:56;16.70;99.90
50013;DHT22;35901;48.694;9.476;2023-06-22T03:44:23;16.90;99.90
50013;DHT22;35901;48.694;9.476;2023-06-22T03:46:49;17.40;99.90
50013;DHT22;35901;48.694;9.476;2023-06-22T03:49:15;17.80;99.90
50013;DHT22;35901;48.694;9.476;2023-06-22T03:51:41;17.90;99.90
50013;DHT22;35901;48.694;9.476;2023-06-22T03:54:07;18.00;99.90
50013;DHT22;35901;48.694;9.476;2023-06-22T03:56:32;18.20;99.90
50013;DHT22;35901;48.694;9.476;2023-06-22T03:58:58;18.20;99.90
50013;DHT22;35901;48.694;9.476;2023-06-22T04:01:23;18.20;99.90
50013;DHT22;35901;48.694;9.476;2023-06-22T04:03:49;18.20;99.90
50013;DHT22;35901;48.694;9.476;2023-06-22T04:06:15;18.20;99.90
50013;DHT22;35901;48.694;9.476;2023-06-22T04:08:41;18.20;99.90
50013;DHT22;35901;48.694;9.476;2023-06-22T04:11:07;18.10;99.90
50013;DHT22;35901;48.694;9.476;2023-06-22T04:13:33;18.20;99.90
50013;DHT22;35901;48.694;9.476;2023-06-22T04:15:58;18.40;99.90
50013;DHT22;35901;48.694;9.476;2023-06-22T04:18:26;18.70;99.90
50013;DHT22;35901;48.694;9.476;2023-06-22T04:20:52;18.90;99.90
50013;DHT22;35901;48.694;9.476;2023-06-22T04:23:17;19.00;99.90
50013;DHT22;35901;48.694;9.476;2023-06-22T04:25:43;19.20;99.90
50013;DHT22;35901;48.694;9.476;2023-06-22T04:28:09;19.50;99.90
50013;DHT22;35901;48.694;9.476;2023-06-22T04:30:38;19.70;99.90
50013;DHT22;35901;48.694;9.476;2023-06-22T04:33:15;19.80;99.90
50013;DHT22;35901;48.694;9.476;2023-06-22T04:35:41;19.80;99.90
50013;DHT22;35901;48.694;9.476;2023-06-22T04:38:07;20.00;99.90
50013;DHT22;35901;48.694;9.476;2023-06-22T04:40:33;20.20;99.90
50013;DHT22;35901;48.694;9.476;2023-06-22T04:42:59;20.30;99.90
50013;DHT22;35901;48.694;9.476;2023-06-22T04:45:28;20.50;99.90
50013;DHT22;35901;48.694;9.476;2023-06-22T04:47:57;20.60;99.90
50013;DHT22;35901;48.694;9.476;2023-06-22T04:50:23;20.70;99.90
50013;DHT22;35901;48.694;9.476;2023-06-22T04:52:49;20.80;99.90
50013;DHT22;35901;48.694;9.476;2023-06-22T04:55:15;20.90;99.90
50013;DHT22;35901;48.694;9.476;2023-06-22T04:57:47;21.00;99.90
50013;DHT22;35901;48.694;9.476;2023-06-22T05:00:20;21.10;99.90
50013;DHT22;35901;48.694;9.476;2023-06-22T05:02:48;21.10;99.90
50013;DHT22;35901;48.694;9.476;2023-06-22T05:05:15;21.20;99.90
50013;DHT22;35901;48.694;9.476;2023-06-22T05:07:47;21.40;99.90
50013;DHT22;35901;48.694;9.476;2023-06-22T05:10:18;21.60;99.90
50013;DHT22;35901;48.694;9.476;2023-06-22T05:12:45;21.70;99.90
50013;DHT22;35901;48.694;9.476;2023-06-22T05:15:11;21.60;99.90
50013;DHT22;35901;48.694;9.476;2023-06-22T05:17:37;21.90;99.90
50013;DHT22;35901;48.694;9.476;2023-06-22T05:20:09;22.00;99.90
50013;DHT22;35901;48.694;9.476;2023-06-22T05:22:35;22.30;99.90
50013;DHT22;35901;48.694;9.476;2023-06-22T05:25:00;22.70;99.90
50013;DHT22;35901;48.694;9.476;2023-06-22T05:27:26;22.70;99.90
50013;DHT22;35901;48.694;9.476;2023-06-22T05:29:52;22.80;99.90
50013;DHT22;35901;48.694;9.476;2023-06-22T05:32:18;22.90;99.90
50013;DHT22;35901;48.694;9.476;2023-06-22T05:34:44;22.90;99.90
50013;DHT22;35901;48.694;9.476;2023-06-22T05:37:09;22.80;99.90
50013;DHT22;35901;48.694;9.476;2023-06-22T05:39:36;22.60;99.90
50013;DHT22;35901;48.694;9.476;2023-06-22T05:42:07;22.70;99.90
50013;DHT22;35901;48.694;9.476;2023-06-22T05:44:33;23.10;99.90
50013;DHT22;35901;48.694;9.476;2023-06-22T05:46:59;23.60;99.90
50013;DHT22;35901;48.694;9.476;2023-06-22T05:49:25;23.80;99.90
50013;DHT22;35901;48.694;9.476;2023-06-22T05:51:55;24.10;99.90
50013;DHT22;35901;48.694;9.476;2023-06-22T05:54:22;24.20;99.90
50013;DHT22;35901;48.694;9.476;2023-06-22T05:56:47;24.30;99.90
50013;DHT22;35901;48.694;9.476;2023-06-22T05:59:13;24.60;99.90
50013;DHT22;35901;48.694;9.476;2023-06-22T06:01:39;24.60;99.90
50013;DHT22;35901;48.694;9.476;2023-06-22T06:04:05;24.80;99.90
50013;DHT22;35901;48.694;9.476;2023-06-22T06:06:33;24.80;99.90
50013;DHT22;35901;48.694;9.476;2023-06-22T06:09:05;25.10;99.90
50013;DHT22;35901;48.694;9.476;2023-06-22T06:11:33;25.10;99.90
50013;DHT22;35901;48.694;9.476;2023-06-22T06:13:59;25.30;99.90
50013;DHT22;35901;48.694;9.476;2023-06-22T06:16:24;25.60;99.90
50013;DHT22;35901;48.694;9.476;2023-06-22T06:18:50;25.90;99.90
50013;DHT22;35901;48.694;9.476;2023-06-22T06:21:16;25.70;99.90
50013;DHT22;35901;48.694;9.476;2023-06-22T06:23:42;25.60;99.90
50013;DHT22;35901;48.694;9.476;2023-06-22T06:26:08;26.00;99.90
50013;DHT22;35901;48.694;9.476;2023-06-22T06:28:35;26.40;99.90
50013;DHT22;35901;48.694;9.476;2023-06-22T06:31:00;26.40;99.90
50013;DHT22;35901;48.694;9.476;2023-06-22T06:33:26;26.70;99.90
50013;DHT22;35901;48.694;9.476;2023-06-22T06:35:52;26.70;99.90
50013;DHT22;35901;48.694;9.476;2023-06-22T06:38:17;26.60;99.90
50013;DHT22;35901;48.694;9.476;2023-06-22T06:40:43;27.00;99.90
50013;DHT22;35901;48.694;9.476;2023-06-22T06:43:10;26.80;99.90
50013;DHT22;35901;48.694;9.476;2023-06-22T06:45:36;26.80;99.90
50013;DHT22;35901;48.694;9.476;2023-06-22T06:48:01;27.20;99.90
50013;DHT22;35901;48.694;9.476;2023-06-22T06:50:28;27.70;99.90
50013;DHT22;35901;48.694;9.476;2023-06-22T06:52:53;27.30;99.90
50013;DHT22;35901;48.694;9.476;2023-06-22T06:55:19;27.40;99.90
50013;DHT22;35901;48.694;9.476;2023-06-22T06:57:45;27.50;99.90
50013;DHT22;35901;48.694;9.476;2023-06-22T07:00:14;27.70;99.90
50013;DHT22;35901;48.694;9.476;2023-06-22T07:02:42;27.90;99.90
50013;DHT22;35901;48.694;9.476;2023-06-22T07:05:10;27.70;99.90
50013;DHT22;35901;48.694;9.476;2023-06-22T07:07:35;27.80;99.90
50013;DHT22;35901;48.694;9.476;2023-06-22T07:10:01;27.60;99.90
50013;DHT22;35901;48.694;9.476;2023-06-22T07:12:28;28.20;99.60
50013;DHT22;35901;48.694;9.476;2023-06-22T07:14:56;28.40;99.20
50013;DHT22;35901;48.694;9.476;2023-06-22T07:17:26;28.10;98.60
50013;DHT22;35901;48.694;9.476;2023-06-22T07:19:51;28.20;98.60
50013;DHT22;35901;48.694;9.476;2023-06-22T07:22:17;28.80;97.30
50013;DHT22;35901;48.694;9.476;2023-06-22T07:24:42;29.60;95.90
50013;DHT22;35901;48.694;9.476;2023-06-22T07:27:08;29.90;94.00
50013;DHT22;35901;48.694;9.476;2023-06-22T07:29:36;29.80;93.80
50013;DHT22;35901;48.694;9.476;2023-06-22T07:32:03;29.70;94.60
50013;DHT22;35901;48.694;9.476;2023-06-22T07:34:30;29.60;93.50
50013;DHT22;35901;48.694;9.476;2023-06-22T07:36:56;29.80;93.00
50013;DHT22;35901;48.694;9.476;2023-06-22T07:39:21;29.60;93.00
50013;DHT22;35901;48.694;9.476;2023-06-22T07:41:51;29.80;92.20
50013;DHT22;35901;48.694;9.476;2023-06-22T07:44:17;29.80;92.00
50013;DHT22;35901;48.694;9.476;2023-06-22T07:46:42;29.70;93.30
50013;DHT22;35901;48.694;9.476;2023-06-22T07:49:08;29.90;93.10
50013;DHT22;35901;48.694;9.476;2023-06-22T07:51:34;30.10;91.90
50013;DHT22;35901;48.694;9.476;2023-06-22T07:54:00;30.10;90.70
50013;DHT22;35901;48.694;9.476;2023-06-22T07:56:26;30.10;89.90
50013;DHT22;35901;48.694;9.476;2023-06-22T07:58:51;30.00;90.00
50013;DHT22;35901;48.694;9.476;2023-06-22T08:01:18;30.00;91.10
50013;DHT22;35901;48.694;9.476;2023-06-22T08:03:50;29.60;91.50
50013;DHT22;35901;48.694;9.476;2023-06-22T08:06:16;29.70;91.20
50013;DHT22;35901;48.694;9.476;2023-06-22T08:08:42;30.30;91.00
50013;DHT22;35901;48.694;9.476;2023-06-22T08:11:08;30.30;90.40
50013;DHT22;35901;48.694;9.476;2023-06-22T08:13:34;30.40;90.50
50013;DHT22;35901;48.694;9.476;2023-06-22T08:16:00;30.40;89.60
50013;DHT22;35901;48.694;9.476;2023-06-22T08:18:25;30.20;90.40
50013;DHT22;35901;48.694;9.476;2023-06-22T08:20:51;30.30;90.00
50013;DHT22;35901;48.694;9.476;2023-06-22T08:23:17;30.50;90.30
50013;DHT22;35901;48.694;9.476;2023-06-22T08:25:42;30.10;90.60
50013;DHT22;35901;48.694;9.476;2023-06-22T08:28:08;30.40;89.70
50013;DHT22;35901;48.694;9.476;2023-06-22T08:30:34;30.20;89.30
50013;DHT22;35901;48.694;9.476;2023-06-22T08:33:00;30.60;90.60
50013;DHT22;35901;48.694;9.476;2023-06-22T08:35:25;30.40;90.30
50013;DHT22;35901;48.694;9.476;2023-06-22T08:37:51;30.50;89.60
50013;DHT22;35901;48.694;9.476;2023-06-22T08:40:20;30.10;90.10
50013;DHT22;35901;48.694;9.476;2023-06-22T08:42:47;30.20;90.70
50013;DHT22;35901;48.694;9.476;2023-06-22T08:45:13;30.10;90.30
50013;DHT22;35901;48.694;9.476;2023-06-22T08:47:40;30.30;90.60
50013;DHT22;35901;48.694;9.476;2023-06-22T08:50:07;30.70;90.50
50013;DHT22;35901;48.694;9.476;2023-06-22T08:52:34;31.00;89.30
50013;DHT22;35901;48.694;9.476;2023-06-22T08:55:00;31.30;87.60
50013;DHT22;35901;48.694;9.476;2023-06-22T08:57:25;31.30;87.90
50013;DHT22;35901;48.694;9.476;2023-06-22T08:59:51;31.50;87.20
50013;DHT22;35901;48.694;9.476;2023-06-22T09:02:26;31.80;87.40
50013;DHT22;35901;48.694;9.476;2023-06-22T09:04:57;32.20;84.80
50013;DHT22;35901;48.694;9.476;2023-06-22T09:07:23;32.30;83.60
50013;DHT22;35901;48.694;9.476;2023-06-22T09:09:50;32.50;82.60
50013;DHT22;35901;48.694;9.476;2023-06-22T09:12:17;32.30;82.90
50013;DHT22;35901;48.694;9.476;2023-06-22T09:14:42;32.30;83.60
50013;DHT22;35901;48.694;9.476;2023-06-22T09:17:08;32.50;82.60
50013;DHT22;35901;48.694;9.476;2023-06-22T09:19:34;32.70;81.30
50013;DHT22;35901;48.694;9.476;2023-06-22T09:22:00;32.60;81.90
50013;DHT22;35901;48.694;9.476;2023-06-22T09:24:25;32.60;81.40
50013;DHT22;35901;48.694;9.476;2023-06-22T09:26:51;32.70;81.70
50013;DHT22;35901;48.694;9.476;2023-06-22T09:29:17;32.70;81.30
50013;DHT22;35901;48.694;9.476;2023-06-22T09:31:42;32.60;82.10
50013;DHT22;35901;48.694;9.476;2023-06-22T09:34:09;32.70;81.10
50013;DHT22;35901;48.694;9.476;2023-06-22T09:36:35;32.70;81.10
50013;DHT22;35901;48.694;9.476;2023-06-22T09:39:01;32.80;81.20
50013;DHT22;35901;48.694;9.476;2023-06-22T09:41:31;33.20;80.60
50013;DHT22;35901;48.694;9.476;2023-06-22T09:43:56;33.40;80.10
50013;DHT22;35901;48.694;9.476;2023-06-22T09:46:22;33.50;79.30
50013;DHT22;35901;48.694;9.476;2023-06-22T09:48:50;33.70;79.40
50013;DHT22;35901;48.694;9.476;2023-06-22T09:51:16;33.70;79.50
50013;DHT22;35901;48.694;9.476;2023-06-22T09:53:42;33.70;79.00
50013;DHT22;35901;48.694;9.476;2023-06-22T09:56:07;33.90;79.80
50013;DHT22;35901;48.694;9.476;2023-06-22T09:58:36;34.20;79.60
50013;DHT22;35901;48.694;9.476;2023-06-22T10:01:02;34.30;79.50
50013;DHT22;35901;48.694;9.476;2023-06-22T10:03:28;34.60;79.00
50013;DHT22;35901;48.694;9.476;2023-06-22T10:05:53;34.50;78.80
50013;DHT22;35901;48.694;9.476;2023-06-22T10:08:19;34.70;79.00
50013;DHT22;35901;48.694;9.476;2023-06-22T10:10:44;34.70;78.50
50013;DHT22;35901;48.694;9.476;2023-06-22T10:13:10;34.90;77.30
50013;DHT22;35901;48.694;9.476;2023-06-22T10:15:37;34.60;77.60
50013;DHT22;35901;48.694;9.476;2023-06-22T10:18:03;34.50;76.70
50013;DHT22;35901;48.694;9.476;2023-06-22T10:20:29;34.30;76.80
50013;DHT22;35901;48.694;9.476;2023-06-22T10:22:54;33.90;77.40
50013;DHT22;35901;48.694;9.476;2023-06-22T10:25:21;33.40;77.90
50013;DHT22;35901;48.694;9.476;2023-06-22T10:27:47;33.00;79.40
50013;DHT22;35901;48.694;9.476;2023-06-22T10:30:13;32.90;80.00
50013;DHT22;35901;48.694;9.476;2023-06-22T10:32:40;32.90;80.00
50013;DHT22;35901;48.694;9.476;2023-06-22T10:35:06;32.90;79.70
50013;DHT22;35901;48.694;9.476;2023-06-22T10:37:32;32.60;79.70
50013;DHT22;35901;48.694;9.476;2023-06-22T10:39:58;32.70;80.10
50013;DHT22;35901;48.694;9.476;2023-06-22T10:42:23;33.20;80.30
50013;DHT22;35901;48.694;9.476;2023-06-22T10:44:49;33.60;79.50
50013;DHT22;35901;48.694;9.476;2023-06-22T10:47:15;34.00;77.50
50013;DHT22;35901;48.694;9.476;2023-06-22T10:49:41;34.00;77.90
50013;DHT22;35901;48.694;9.476;2023-06-22T10:52:07;33.80;78.90
50013;DHT22;35901;48.694;9.476;2023-06-22T10:54:35;33.90;78.60
50013;DHT22;35901;48.694;9.476;2023-06-22T10:57:01;34.00;77.70
50013;DHT22;35901;48.694;9.476;2023-06-22T10:59:27;34.00;77.40
50013;DHT22;35901;48.694;9.476;2023-06-22T11:01:55;34.40;77.20
50013;DHT22;35901;48.694;9.476;2023-06-22T11:04:21;34.70;74.80
50013;DHT22;35901;48.694;9.476;2023-06-22T11:06:48;34.70;75.30
50013;DHT22;35901;48.694;9.476;2023-06-22T11:09:14;34.60;75.00
50013;DHT22;35901;48.694;9.476;2023-06-22T11:11:44;34.60;74.60
50013;DHT22;35901;48.694;9.476;2023-06-22T11:14:10;34.80;75.30
50013;DHT22;35901;48.694;9.476;2023-06-22T11:16:35;35.00;73.10
50013;DHT22;35901;48.694;9.476;2023-06-22T11:19:01;34.80;73.50
50013;DHT22;35901;48.694;9.476;2023-06-22T11:21:28;34.70;75.10
50013;DHT22;35901;48.694;9.476;2023-06-22T11:23:54;34.70;73.60
50013;DHT22;35901;48.694;9.476;2023-06-22T11:26:19;34.60;74.60
50013;DHT22;35901;48.694;9.476;2023-06-22T11:28:46;34.30;74.60
50013;DHT22;35901;48.694;9.476;2023-06-22T11:31:12;34.50;74.80
50013;DHT22;35901;48.694;9.476;2023-06-22T11:33:37;34.50;73.00
50013;DHT22;35901;48.694;9.476;2023-06-22T11:36:03;34.50;73.40
50013;DHT22;35901;48.694;9.476;2023-06-22T11:38:29;34.20;73.50
50013;DHT22;35901;48.694;9.476;2023-06-22T11:40:57;33.80;74.60
50013;DHT22;35901;48.694;9.476;2023-06-22T11:43:23;33.40;74.10
50013;DHT22;35901;48.694;9.476;2023-06-22T11:45:48;33.30;73.90
50013;DHT22;35901;48.694;9.476;2023-06-22T11:48:14;33.40;73.90
50013;DHT22;35901;48.694;9.476;2023-06-22T11:50:40;33.30;73.90
50013;DHT22;35901;48.694;9.476;2023-06-22T11:53:06;33.60;73.10
50013;DHT22;35901;48.694;9.476;2023-06-22T11:55:31;33.40;73.60
50013;DHT22;35901;48.694;9.476;2023-06-22T11:57:57;33.20;73.20
50013;DHT22;35901;48.694;9.476;2023-06-22T12:00:31;33.10;73.50
50013;DHT22;35901;48.694;9.476;2023-06-22T12:02:57;32.90;73.20
50013;DHT22;35901;48.694;9.476;2023-06-22T12:05:22;32.70;74.60
50013;DHT22;35901;48.694;9.476;2023-06-22T12:07:49;32.40;75.90
50013;DHT22;35901;48.694;9.476;2023-06-22T12:10:15;32.20;76.90
50013;DHT22;35901;48.694;9.476;2023-06-22T12:12:42;32.20;78.00
50013;DHT22;35901;48.694;9.476;2023-06-22T12:15:09;32.40;77.20
50013;DHT22;35901;48.694;9.476;2023-06-22T12:17:35;32.90;77.10
50013;DHT22;35901;48.694;9.476;2023-06-22T12:20:01;33.60;75.30
50013;DHT22;35901;48.694;9.476;2023-06-22T12:22:31;33.90;73.80
50013;DHT22;35901;48.694;9.476;2023-06-22T12:24:57;34.20;72.90
50013;DHT22;35901;48.694;9.476;2023-06-22T12:27:23;34.20;71.50
50013;DHT22;35901;48.694;9.476;2023-06-22T12:29:48;33.90;72.80
50013;DHT22;35901;48.694;9.476;2023-06-22T12:32:14;33.80;72.80
50013;DHT22;35901;48.694;9.476;2023-06-22T12:34:42;33.70;72.80
50013;DHT22;35901;48.694;9.476;2023-06-22T12:37:08;33.60;72.30
50013;DHT22;35901;48.694;9.476;2023-06-22T12:39:34;33.60;69.80
50013;DHT22;35901;48.694;9.476;2023-06-22T12:41:59;33.20;70.80
50013;DHT22;35901;48.694;9.476;2023-06-22T12:44:25;32.80;70.90
50013;DHT22;35901;48.694;9.476;2023-06-22T12:46:51;32.60;73.80
50013;DHT22;35901;48.694;9.476;2023-06-22T12:49:17;32.30;75.10
50013;DHT22;35901;48.694;9.476;2023-06-22T12:51:43;32.00;75.20
50013;DHT22;35901;48.694;9.476;2023-06-22T12:54:10;31.80;75.60
50013;DHT22;35901;48.694;9.476;2023-06-22T12:56:35;31.70;75.70
50013;DHT22;35901;48.694;9.476;2023-06-22T12:59:01;31.70;74.80
50013;DHT22;35901;48.694;9.476;2023-06-22T13:01:32;31.70;74.60
50013;DHT22;35901;48.694;9.476;2023-06-22T13:03:59;31.80;74.60
50013;DHT22;35901;48.694;9.476;2023-06-22T13:06:24;31.90;75.10
50013;DHT22;35901;48.694;9.476;2023-06-22T13:08:50;32.10;75.50
50013;DHT22;35901;48.694;9.476;2023-06-22T13:11:16;32.20;75.00
50013;DHT22;35901;48.694;9.476;2023-06-22T13:13:41;32.40;75.70
50013;DHT22;35901;48.694;9.476;2023-06-22T13:16:07;32.40;75.40
50013;DHT22;35901;48.694;9.476;2023-06-22T13:18:33;32.50;75.80
50013;DHT22;35901;48.694;9.476;2023-06-22T13:21:01;32.60;75.90
50013;DHT22;35901;48.694;9.476;2023-06-22T13:23:27;32.60;76.50
50013;DHT22;35901;48.694;9.476;2023-06-22T13:25:53;32.80;76.90
50013;DHT22;35901;48.694;9.476;2023-06-22T13:28:18;33.10;75.80
50013;DHT22;35901;48.694;9.476;2023-06-22T13:30:46;33.30;76.00
50013;DHT22;35901;48.694;9.476;2023-06-22T13:33:16;33.30;76.00
50013;DHT22;35901;48.694;9.476;2023-06-22T13:35:42;33.60;76.40
50013;DHT22;35901;48.694;9.476;2023-06-22T13:38:11;33.70;75.70
50013;DHT22;35901;48.694;9.476;2023-06-22T13:40:37;33.90;74.50
50013;DHT22;35901;48.694;9.476;2023-06-22T13:43:04;34.20;74.30
50013;DHT22;35901;48.694;9.476;2023-06-22T13:45:30;34.40;73.20
50013;DHT22;35901;48.694;9.476;2023-06-22T13:47:56;34.50;73.00
50013;DHT22;35901;48.694;9.476;2023-06-22T13:50:21;34.80;73.00
50013;DHT22;35901;48.694;9.476;2023-06-22T13:52:47;35.10;72.00
50013;DHT22;35901;48.694;9.476;2023-06-22T13:55:13;34.80;71.10
50013;DHT22;35901;48.694;9.476;2023-06-22T13:57:40;34.40;72.30
50013;DHT22;35901;48.694;9.476;2023-06-22T14:00:07;34.10;73.20
50013;DHT22;35901;48.694;9.476;2023-06-22T14:02:39;33.90;73.00
50013;DHT22;35901;48.694;9.476;2023-06-22T14:05:06;33.80;70.80
50013;DHT22;35901;48.694;9.476;2023-06-22T14:07:32;33.60;70.60
50013;DHT22;35901;48.694;9.476;2023-06-22T14:09:57;33.60;69.30
50013;DHT22;35901;48.694;9.476;2023-06-22T14:12:24;33.60;69.20
50013;DHT22;35901;48.694;9.476;2023-06-22T14:14:50;33.60;68.70
50013;DHT22;35901;48.694;9.476;2023-06-22T14:17:15;33.70;69.00
50013;DHT22;35901;48.694;9.476;2023-06-22T14:19:41;33.70;69.00
50013;DHT22;35901;48.694;9.476;2023-06-22T14:22:07;33.70;70.00
50013;DHT22;35901;48.694;9.476;2023-06-22T14:24:32;33.70;69.50
50013;DHT22;35901;48.694;9.476;2023-06-22T14:26:58;33.70;68.90
50013;DHT22;35901;48.694;9.476;2023-06-22T14:29:24;33.50;68.50
50013;DHT22;35901;48.694;9.476;2023-06-22T14:31:50;33.30;68.80
50013;DHT22;35901;48.694;9.476;2023-06-22T14:34:16;33.30;68.90
50013;DHT22;35901;48.694;9.476;2023-06-22T14:36:42;33.30;69.40
50013;DHT22;35901;48.694;9.476;2023-06-22T14:39:08;33.30;69.40
50013;DHT22;35901;48.694;9.476;2023-06-22T14:41:34;33.60;69.00
50013;DHT22;35901;48.694;9.476;2023-06-22T14:44:00;33.90;68.10
50013;DHT22;35901;48.694;9.476;2023-06-22T14:46:25;34.40;67.30
50013;DHT22;35901;48.694;9.476;2023-06-22T14:48:51;34.60;66.80
50013;DHT22;35901;48.694;9.476;2023-06-22T14:51:17;34.40;66.20
50013;DHT22;35901;48.694;9.476;2023-06-22T14:53:44;34.30;66.00
50013;DHT22;35901;48.694;9.476;2023-06-22T14:56:10;34.20;66.50
50013;DHT22;35901;48.694;9.476;2023-06-22T14:58:36;34.30;66.60
50013;DHT22;35901;48.694;9.476;2023-06-22T15:01:02;34.50;66.20
50013;DHT22;35901;48.694;9.476;2023-06-22T15:03:29;34.50;65.80
50013;DHT22;35901;48.694;9.476;2023-06-22T15:05:57;34.80;65.50
50013;DHT22;35901;48.694;9.476;2023-06-22T15:08:24;35.10;64.50
50013;DHT22;35901;48.694;9.476;2023-06-22T15:10:51;35.20;64.20
50013;DHT22;35901;48.694;9.476;2023-06-22T15:13:17;35.20;64.10
50013;DHT22;35901;48.694;9.476;2023-06-22T15:15:45;35.10;64.40
50013;DHT22;35901;48.694;9.476;2023-06-22T15:18:11;35.10;64.30
50013;DHT22;35901;48.694;9.476;2023-06-22T15:20:36;35.00;65.30
50013;DHT22;35901;48.694;9.476;2023-06-22T15:23:02;34.80;65.90
50013;DHT22;35901;48.694;9.476;2023-06-22T15:25:28;34.60;66.50
50013;DHT22;35901;48.694;9.476;2023-06-22T15:27:54;34.70;66.70
50013;DHT22;35901;48.694;9.476;2023-06-22T15:30:19;34.80;66.70
50013;DHT22;35901;48.694;9.476;2023-06-22T15:32:45;34.90;65.90